Portada
METAR-TAF:

METAR-TAF

Aeroports :

Aeroport d'Ouagadougou

Ouagadougou, Burkina Faso

latitud: 12-21N, longitud: 001-31W, altitud: 316 m

Observació

L'informe es va fer fa 1 hora i 5 minuts, a les 18:00 UTC
Vent 7 kt del Nord-Est
Temperatura 39°C
Humitat 10%
Pressió 1007 hPa
Visibilitat: 8000 m

METAR: DFFD 291800Z 05007KT 8000 NSC 39/02 Q1007 NOSIG

Hora: 19:05 (19:05 UTC)

Pronòstic

L'informe es va fer fa 2 hores i 5 minuts, a les 17:00 UTC
Pronòstic vàlid del 29 a les 18 UTC al 30 a les 24 UTC
Vent 8 kt del Nord/Nord-Est
Visibilitat: 8000 m

TAF: DFFD 291700Z 2918/3024 02008KT 8000 NSC

Observacions i pronòstics meteorològics de més de 4000 aeroports (METAR i TAF).

Les estacions disponibles són els punts grocs i vermells al mapa.

Posi el ratolí al punt desitjat per veure el nom de l'estació.

Feu clic per veure les observacions i els pronòstics meteorològics.

Per canviar el mapa: feu clic els botons verds amb una creu de color negre per apropar; al botó verd amb un guió per allunyar la imatge; o en les fletxes verdes per a mapes adjacents.


METAR-TAF: